sensor_id;sensor_type;location;lat;lon;timestamp;pressure;altitude;pressure_sealevel;temperature;humidity
25869;BME280;13688;53.154;18.136;2023-01-29T00:01:49;101841.79;;;-2.09;82.09
25869;BME280;13688;53.154;18.136;2023-01-29T00:07:13;101829.44;;;-2.04;81.56
25869;BME280;13688;53.154;18.136;2023-01-29T00:12:35;101813.58;;;-1.98;81.07
25869;BME280;13688;53.154;18.136;2023-01-29T00:17:57;101813.54;;;-1.92;80.43
25869;BME280;13688;53.154;18.136;2023-01-29T00:23:20;101810.84;;;-1.87;79.79
25869;BME280;13688;53.154;18.136;2023-01-29T00:28:43;101793.30;;;-1.90;79.37
25869;BME280;13688;53.154;18.136;2023-01-29T00:34:06;101793.30;;;-1.90;79.14
25869;BME280;13688;53.154;18.136;2023-01-29T00:39:28;101788.05;;;-1.91;79.03
25869;BME280;13688;53.154;18.136;2023-01-29T00:44:52;101787.17;;;-1.93;79.03
25869;BME280;13688;53.154;18.136;2023-01-29T00:50:16;101784.55;;;-1.92;78.96
25869;BME280;13688;53.154;18.136;2023-01-29T00:55:39;101799.48;;;-1.92;78.85
25869;BME280;13688;53.154;18.136;2023-01-29T01:01:01;101803.89;;;-1.96;78.77
25869;BME280;13688;53.154;18.136;2023-01-29T01:06:24;101781.95;;;-1.98;78.86
25869;BME280;13688;53.154;18.136;2023-01-29T01:11:47;101774.95;;;-2.00;78.95
25869;BME280;13688;53.154;18.136;2023-01-29T01:17:09;101768.84;;;-2.03;79.04
25869;BME280;13688;53.154;18.136;2023-01-29T01:22:32;101782.02;;;-2.03;79.10
25869;BME280;13688;53.154;18.136;2023-01-29T01:27:56;101785.50;;;-2.00;79.02
25869;BME280;13688;53.154;18.136;2023-01-29T01:33:19;101765.31;;;-2.02;78.96
25869;BME280;13688;53.154;18.136;2023-01-29T01:38:42;101761.81;;;-2.05;79.03
25869;BME280;13688;53.154;18.136;2023-01-29T01:44:06;101768.87;;;-2.09;79.07
25869;BME280;13688;53.154;18.136;2023-01-29T01:49:47;101796.08;;;-2.07;79.11
25869;BME280;13688;53.154;18.136;2023-01-29T01:55:12;101789.92;;;-2.06;79.12
25869;BME280;13688;53.154;18.136;2023-01-29T02:00:37;101775.84;;;-2.03;79.06
25869;BME280;13688;53.154;18.136;2023-01-29T02:06:01;101787.27;;;-2.01;78.97
25869;BME280;13688;53.154;18.136;2023-01-29T02:11:42;101788.12;;;-1.99;78.91
25869;BME280;13688;53.154;18.136;2023-01-29T02:17:07;101766.14;;;-1.98;78.91
25869;BME280;13688;53.154;18.136;2023-01-29T02:23:07;101771.39;;;-1.96;78.85
25869;BME280;13688;53.154;18.136;2023-01-29T02:29:01;101759.94;;;-1.94;78.67
25869;BME280;13688;53.154;18.136;2023-01-29T02:34:54;101759.08;;;-1.93;78.43
25869;BME280;13688;53.154;18.136;2023-01-29T02:46:34;101738.84;;;-1.91;78.20
25869;BME280;13688;53.154;18.136;2023-01-29T02:52:18;101729.17;;;-1.90;78.16
25869;BME280;13688;53.154;18.136;2023-01-29T02:57:45;101726.52;;;-1.89;78.22
25869;BME280;13688;53.154;18.136;2023-01-29T03:03:29;101711.58;;;-1.88;78.23
25869;BME280;13688;53.154;18.136;2023-01-29T03:08:56;101705.44;;;-1.89;78.27
25869;BME280;13688;53.154;18.136;2023-01-29T03:14:39;101684.37;;;-1.90;78.45
25869;BME280;13688;53.154;18.136;2023-01-29T03:20:29;101669.45;;;-1.91;78.57
25869;BME280;13688;53.154;18.136;2023-01-29T03:25:55;101664.20;;;-1.93;78.68
25869;BME280;13688;53.154;18.136;2023-01-29T03:31:32;101668.58;;;-1.92;78.83
25869;BME280;13688;53.154;18.136;2023-01-29T03:49:00;101651.03;;;-1.96;79.38
25869;BME280;13688;53.154;18.136;2023-01-29T03:54:28;101645.77;;;-1.96;79.62
25869;BME280;13688;53.154;18.136;2023-01-29T03:59:53;101655.41;;;-1.95;79.72
25869;BME280;13688;53.154;18.136;2023-01-29T04:05:20;101644.02;;;-1.97;79.88
25869;BME280;13688;53.154;18.136;2023-01-29T04:10:46;101643.13;;;-1.96;80.07
25869;BME280;13688;53.154;18.136;2023-01-29T04:16:15;101645.77;;;-1.96;80.23
25869;BME280;13688;53.154;18.136;2023-01-29T04:21:39;101637.88;;;-1.97;80.38
25869;BME280;13688;53.154;18.136;2023-01-29T04:27:17;101631.73;;;-1.98;80.50
25869;BME280;13688;53.154;18.136;2023-01-29T04:38:33;101620.37;;;-2.02;80.94
25869;BME280;13688;53.154;18.136;2023-01-29T04:55:50;101615.00;;;-1.92;83.02
25869;BME280;13688;53.154;18.136;2023-01-29T05:01:17;101608.09;;;-2.03;82.52
25869;BME280;13688;53.154;18.136;2023-01-29T05:06:43;101632.68;;;-2.02;82.83
25869;BME280;13688;53.154;18.136;2023-01-29T05:12:08;101637.11;;;-2.07;83.17
25869;BME280;13688;53.154;18.136;2023-01-29T05:17:31;101624.93;;;-2.17;83.91
25869;BME280;13688;53.154;18.136;2023-01-29T05:22:54;101601.28;;;-2.22;84.93
25869;BME280;13688;53.154;18.136;2023-01-29T05:28:16;101606.52;;;-2.19;85.78
25869;BME280;13688;53.154;18.136;2023-01-29T05:33:39;101599.45;;;-2.17;86.19
25869;BME280;13688;53.154;18.136;2023-01-29T05:39:01;101611.73;;;-2.16;86.44
25869;BME280;13688;53.154;18.136;2023-01-29T05:44:23;101597.77;;;-2.24;86.83
25869;BME280;13688;53.154;18.136;2023-01-29T05:49:46;101604.83;;;-2.26;87.58
25869;BME280;13688;53.154;18.136;2023-01-29T05:55:08;101592.57;;;-2.28;88.37
25869;BME280;13688;53.154;18.136;2023-01-29T06:00:31;101610.15;;;-2.32;89.19
25869;BME280;13688;53.154;18.136;2023-01-29T06:05:53;101609.36;;;-2.39;90.24
25869;BME280;13688;53.154;18.136;2023-01-29T06:11:18;101619.91;;;-2.40;91.44
25869;BME280;13688;53.154;18.136;2023-01-29T06:16:40;101616.40;;;-2.42;92.59
25869;BME280;13688;53.154;18.136;2023-01-29T06:22:02;101624.31;;;-2.41;93.72
25869;BME280;13688;53.154;18.136;2023-01-29T06:27:24;101628.69;;;-2.40;94.67
25869;BME280;13688;53.154;18.136;2023-01-29T06:32:47;101640.95;;;-2.37;95.50
25869;BME280;13688;53.154;18.136;2023-01-29T06:38:15;101640.92;;;-2.36;96.20
25869;BME280;13688;53.154;18.136;2023-01-29T06:43:37;101631.23;;;-2.34;96.69
25869;BME280;13688;53.154;18.136;2023-01-29T06:49:02;101611.91;;;-2.29;97.12
25869;BME280;13688;53.154;18.136;2023-01-29T06:54:24;101615.36;;;-2.26;97.40
25869;BME280;13688;53.154;18.136;2023-01-29T06:59:46;101610.05;;;-2.23;97.50
25869;BME280;13688;53.154;18.136;2023-01-29T07:05:09;101607.38;;;-2.18;97.53
25869;BME280;13688;53.154;18.136;2023-01-29T07:10:31;101608.23;;;-2.16;97.53
25869;BME280;13688;53.154;18.136;2023-01-29T07:15:57;101604.69;;;-2.12;97.37
25869;BME280;13688;53.154;18.136;2023-01-29T07:21:18;101609.05;;;-2.10;97.26
25869;BME280;13688;53.154;18.136;2023-01-29T07:26:41;101614.27;;;-2.07;97.07
25869;BME280;13688;53.154;18.136;2023-01-29T07:32:03;101598.45;;;-2.07;96.93
25869;BME280;13688;53.154;18.136;2023-01-29T07:37:26;101611.59;;;-2.02;96.94
25869;BME280;13688;53.154;18.136;2023-01-29T07:42:48;101606.26;;;-1.97;97.01
25869;BME280;13688;53.154;18.136;2023-01-29T07:48:17;101609.72;;;-1.92;97.09
25869;BME280;13688;53.154;18.136;2023-01-29T07:53:40;101607.95;;;-1.93;97.09
25869;BME280;13688;53.154;18.136;2023-01-29T07:59:03;101609.67;;;-1.89;97.17
25869;BME280;13688;53.154;18.136;2023-01-29T08:04:25;101583.25;;;-1.85;97.30
25869;BME280;13688;53.154;18.136;2023-01-29T08:09:48;101574.34;;;-1.76;97.40
25869;BME280;13688;53.154;18.136;2023-01-29T08:15:10;101563.67;;;-1.67;97.42
25869;BME280;13688;53.154;18.136;2023-01-29T08:20:33;101572.33;;;-1.57;97.35
25869;BME280;13688;53.154;18.136;2023-01-29T08:25:55;101566.14;;;-1.53;97.08
25869;BME280;13688;53.154;18.136;2023-01-29T08:31:19;101542.31;;;-1.49;96.74
25869;BME280;13688;53.154;18.136;2023-01-29T08:36:42;101542.34;;;-1.50;96.34
25869;BME280;13688;53.154;18.136;2023-01-29T08:42:04;101537.05;;;-1.49;96.05
25869;BME280;13688;53.154;18.136;2023-01-29T08:47:26;101531.66;;;-1.41;95.82
25869;BME280;13688;53.154;18.136;2023-01-29T08:52:49;101528.13;;;-1.40;95.48
25869;BME280;13688;53.154;18.136;2023-01-29T08:58:13;101531.57;;;-1.36;95.05
25869;BME280;13688;53.154;18.136;2023-01-29T09:03:36;101535.02;;;-1.31;94.65
25869;BME280;13688;53.154;18.136;2023-01-29T09:08:59;101536.73;;;-1.29;94.25
25869;BME280;13688;53.154;18.136;2023-01-29T09:14:23;101541.05;;;-1.23;93.92
25869;BME280;13688;53.154;18.136;2023-01-29T09:19:51;101543.66;;;-1.22;93.65
25869;BME280;13688;53.154;18.136;2023-01-29T09:25:16;101540.12;;;-1.21;93.46
25869;BME280;13688;53.154;18.136;2023-01-29T09:30:39;101541.02;;;-1.22;93.36
25869;BME280;13688;53.154;18.136;2023-01-29T09:36:02;101533.02;;;-1.16;93.49
25869;BME280;13688;53.154;18.136;2023-01-29T09:47:10;101539.02;;;-1.06;93.86
25869;BME280;13688;53.154;18.136;2023-01-29T09:52:50;101531.63;;;-0.87;93.61
25869;BME280;13688;53.154;18.136;2023-01-29T09:58:36;101528.39;;;-1.03;94.26
25869;BME280;13688;53.154;18.136;2023-01-29T10:04:12;101530.02;;;-0.94;94.50
25869;BME280;13688;53.154;18.136;2023-01-29T10:26:58;101475.91;;;-0.72;95.03
25869;BME280;13688;53.154;18.136;2023-01-29T10:32:31;101452.25;;;-0.76;95.00
25869;BME280;13688;53.154;18.136;2023-01-29T10:37:57;101444.19;;;-0.70;95.12
25869;BME280;13688;53.154;18.136;2023-01-29T10:49:25;101428.30;;;-0.69;95.46
25869;BME280;13688;53.154;18.136;2023-01-29T11:00:48;101427.17;;;-0.55;95.78
25869;BME280;13688;53.154;18.136;2023-01-29T11:06:27;101421.73;;;-0.48;96.08
25869;BME280;13688;53.154;18.136;2023-01-29T11:12:02;101408.00;;;-0.65;95.58
25869;BME280;13688;53.154;18.136;2023-01-29T11:17:29;101390.39;;;-0.65;95.68
25869;BME280;13688;53.154;18.136;2023-01-29T11:22:53;101401.66;;;-0.56;95.96
25869;BME280;13688;53.154;18.136;2023-01-29T11:28:16;101401.62;;;-0.55;96.12
25869;BME280;13688;53.154;18.136;2023-01-29T11:34:05;101398.16;;;-0.59;96.19
25869;BME280;13688;53.154;18.136;2023-01-29T11:39:31;101392.87;;;-0.57;96.36
25869;BME280;13688;53.154;18.136;2023-01-29T11:44:55;101376.08;;;-0.54;96.54
25869;BME280;13688;53.154;18.136;2023-01-29T11:50:20;101361.18;;;-0.57;96.66
25869;BME280;13688;53.154;18.136;2023-01-29T11:55:46;101356.69;;;-0.53;96.81
25869;BME280;13688;53.154;18.136;2023-01-29T12:01:09;101346.98;;;-0.53;96.92
25869;BME280;13688;53.154;18.136;2023-01-29T12:06:41;101336.31;;;-0.48;97.02
25869;BME280;13688;53.154;18.136;2023-01-29T12:12:15;101347.77;;;-0.48;97.09
25869;BME280;13688;53.154;18.136;2023-01-29T12:17:36;101345.22;;;-0.52;97.19
25869;BME280;13688;53.154;18.136;2023-01-29T12:23:05;101324.08;;;-0.52;97.54
25869;BME280;13688;53.154;18.136;2023-01-29T12:28:54;101325.07;;;-0.56;98.08
25869;BME280;13688;53.154;18.136;2023-01-29T12:34:27;101312.73;;;-0.56;98.89
25869;BME280;13688;53.154;18.136;2023-01-29T12:40:00;101318.77;;;-0.51;99.97
25869;BME280;13688;53.154;18.136;2023-01-29T12:45:31;101322.23;;;-0.47;100.00
25869;BME280;13688;53.154;18.136;2023-01-29T12:50:54;101302.05;;;-0.51;100.00
25869;BME280;13688;53.154;18.136;2023-01-29T12:56:37;101316.82;;;-0.43;100.00
25869;BME280;13688;53.154;18.136;2023-01-29T13:02:29;101300.06;;;-0.42;100.00
25869;BME280;13688;53.154;18.136;2023-01-29T13:07:58;101284.17;;;-0.40;100.00
25869;BME280;13688;53.154;18.136;2023-01-29T13:13:29;101292.91;;;-0.37;100.00
25869;BME280;13688;53.154;18.136;2023-01-29T13:19:05;101276.03;;;-0.31;100.00
25869;BME280;13688;53.154;18.136;2023-01-29T13:24:46;101275.98;;;-0.30;100.00
25869;BME280;13688;53.154;18.136;2023-01-29T13:30:28;101268.83;;;-0.24;100.00
25869;BME280;13688;53.154;18.136;2023-01-29T13:35:50;101269.78;;;-0.27;100.00
25869;BME280;13688;53.154;18.136;2023-01-29T13:41:16;101266.28;;;-0.29;100.00
25869;BME280;13688;53.154;18.136;2023-01-29T13:46:42;101253.97;;;-0.28;100.00
25869;BME280;13688;53.154;18.136;2023-01-29T13:57:53;101257.48;;;-0.28;100.00
25869;BME280;13688;53.154;18.136;2023-01-29T14:08:51;101241.62;;;-0.28;100.00
25869;BME280;13688;53.154;18.136;2023-01-29T14:20:40;101243.95;;;-0.16;99.47
25869;BME280;13688;53.154;18.136;2023-01-29T14:25:56;101231.02;;;-0.26;100.00
25869;BME280;13688;53.154;18.136;2023-01-29T14:31:30;101239.80;;;-0.26;100.00
25869;BME280;13688;53.154;18.136;2023-01-29T14:36:56;101239.80;;;-0.26;100.00
25869;BME280;13688;53.154;18.136;2023-01-29T14:42:36;101252.19;;;-0.28;100.00
25869;BME280;13688;53.154;18.136;2023-01-29T14:59:27;101224.86;;;-0.27;100.00
25869;BME280;13688;53.154;18.136;2023-01-29T15:04:52;101228.47;;;-0.31;100.00
25869;BME280;13688;53.154;18.136;2023-01-29T15:10:41;101229.46;;;-0.35;100.00
25869;BME280;13688;53.154;18.136;2023-01-29T15:16:43;101227.83;;;-0.41;100.00
25869;BME280;13688;53.154;18.136;2023-01-29T15:22:25;101215.56;;;-0.43;100.00
25869;BME280;13688;53.154;18.136;2023-01-29T15:27:50;101250.86;;;-0.46;100.00
25869;BME280;13688;53.154;18.136;2023-01-29T15:33:15;101224.48;;;-0.47;100.00
25869;BME280;13688;53.154;18.136;2023-01-29T15:38:38;101205.14;;;-0.49;100.00
25869;BME280;13688;53.154;18.136;2023-01-29T15:44:12;101208.69;;;-0.50;100.00
25869;BME280;13688;53.154;18.136;2023-01-29T15:49:38;101191.11;;;-0.51;100.00
25869;BME280;13688;53.154;18.136;2023-01-29T15:55:06;101177.03;;;-0.52;100.00
25869;BME280;13688;53.154;18.136;2023-01-29T16:00:29;101179.68;;;-0.52;100.00
25869;BME280;13688;53.154;18.136;2023-01-29T16:05:52;101163.01;;;-0.54;100.00
25869;BME280;13688;53.154;18.136;2023-01-29T16:11:16;101165.69;;;-0.55;100.00
25869;BME280;13688;53.154;18.136;2023-01-29T16:16:40;101161.32;;;-0.56;100.00
25869;BME280;13688;53.154;18.136;2023-01-29T16:22:04;101157.86;;;-0.60;100.00
25869;BME280;13688;53.154;18.136;2023-01-29T16:27:29;101154.45;;;-0.64;100.00
25869;BME280;13688;53.154;18.136;2023-01-29T16:32:52;101144.84;;;-0.66;100.00
25869;BME280;13688;53.154;18.136;2023-01-29T16:38:28;101146.56;;;-0.65;100.00
25869;BME280;13688;53.154;18.136;2023-01-29T16:43:55;101141.28;;;-0.65;100.00
25869;BME280;13688;53.154;18.136;2023-01-29T16:55:02;101117.48;;;-0.64;100.00
25869;BME280;13688;53.154;18.136;2023-01-29T17:00:30;101117.48;;;-0.64;100.00
25869;BME280;13688;53.154;18.136;2023-01-29T17:05:53;101118.30;;;-0.62;100.00
25869;BME280;13688;53.154;18.136;2023-01-29T17:11:37;101119.16;;;-0.61;100.00
25869;BME280;13688;53.154;18.136;2023-01-29T17:22:30;101116.44;;;-0.58;100.00
25869;BME280;13688;53.154;18.136;2023-01-29T17:27:53;101106.77;;;-0.57;100.00
25869;BME280;13688;53.154;18.136;2023-01-29T17:33:24;101096.11;;;-0.54;100.00
25869;BME280;13688;53.154;18.136;2023-01-29T17:38:47;101096.98;;;-0.54;100.00
25869;BME280;13688;53.154;18.136;2023-01-29T17:44:10;101089.88;;;-0.52;100.00
25869;BME280;13688;53.154;18.136;2023-01-29T17:49:35;101068.74;;;-0.52;100.00
25869;BME280;13688;53.154;18.136;2023-01-29T17:54:58;101070.47;;;-0.51;100.00
25869;BME280;13688;53.154;18.136;2023-01-29T18:00:25;101070.47;;;-0.51;100.00
25869;BME280;13688;53.154;18.136;2023-01-29T18:05:48;101047.52;;;-0.49;100.00
25869;BME280;13688;53.154;18.136;2023-01-29T18:11:11;101051.02;;;-0.47;100.00
25869;BME280;13688;53.154;18.136;2023-01-29T18:16:33;101052.70;;;-0.44;100.00
25869;BME280;13688;53.154;18.136;2023-01-29T18:21:57;101053.52;;;-0.42;100.00
25869;BME280;13688;53.154;18.136;2023-01-29T18:27:22;101037.63;;;-0.41;100.00
25869;BME280;13688;53.154;18.136;2023-01-29T18:32:46;101039.33;;;-0.38;100.00
25869;BME280;13688;53.154;18.136;2023-01-29T18:38:10;101012.87;;;-0.37;100.00
25869;BME280;13688;53.154;18.136;2023-01-29T18:43:33;100997.02;;;-0.37;100.00
25869;BME280;13688;53.154;18.136;2023-01-29T18:48:56;100977.61;;;-0.36;100.00
25869;BME280;13688;53.154;18.136;2023-01-29T18:54:21;100967.05;;;-0.36;100.00
25869;BME280;13688;53.154;18.136;2023-01-29T18:59:45;100963.48;;;-0.35;100.00
25869;BME280;13688;53.154;18.136;2023-01-29T19:05:08;100963.39;;;-0.32;100.00
25869;BME280;13688;53.154;18.136;2023-01-29T19:10:34;100950.11;;;-0.28;100.00
25869;BME280;13688;53.154;18.136;2023-01-29T19:15:57;100954.43;;;-0.26;100.00
25869;BME280;13688;53.154;18.136;2023-01-29T19:21:24;100943.86;;;-0.26;100.00
25869;BME280;13688;53.154;18.136;2023-01-29T19:26:48;100941.22;;;-0.26;100.00
25869;BME280;13688;53.154;18.136;2023-01-29T19:32:12;100929.69;;;-0.23;100.00
25869;BME280;13688;53.154;18.136;2023-01-29T19:37:37;100920.84;;;-0.22;100.00
25869;BME280;13688;53.154;18.136;2023-01-29T19:43:00;100915.50;;;-0.21;100.00
25869;BME280;13688;53.154;18.136;2023-01-29T19:48:26;100904.13;;;-0.23;100.00
25869;BME280;13688;53.154;18.136;2023-01-29T19:53:49;100902.30;;;-0.21;100.00
25869;BME280;13688;53.154;18.136;2023-01-29T19:59:13;100893.55;;;-0.23;100.00
25869;BME280;13688;53.154;18.136;2023-01-29T20:04:35;100883.04;;;-0.24;100.00
25869;BME280;13688;53.154;18.136;2023-01-29T20:09:58;100886.59;;;-0.25;100.00
25869;BME280;13688;53.154;18.136;2023-01-29T20:15:23;100879.48;;;-0.23;100.00
25869;BME280;13688;53.154;18.136;2023-01-29T20:20:49;100862.77;;;-0.24;100.00
25869;BME280;13688;53.154;18.136;2023-01-29T20:26:19;100861.80;;;-0.21;100.00
25869;BME280;13688;53.154;18.136;2023-01-29T20:31:41;100854.73;;;-0.21;100.00
25869;BME280;13688;53.154;18.136;2023-01-29T20:37:04;100847.67;;;-0.20;100.00
25869;BME280;13688;53.154;18.136;2023-01-29T20:42:26;100833.53;;;-0.19;100.00
25869;BME280;13688;53.154;18.136;2023-01-29T20:47:48;100827.37;;;-0.18;100.00
25869;BME280;13688;53.154;18.136;2023-01-29T20:53:12;100819.44;;;-0.18;100.00
25869;BME280;13688;53.154;18.136;2023-01-29T20:58:35;100796.52;;;-0.18;100.00
25869;BME280;13688;53.154;18.136;2023-01-29T21:03:57;100801.80;;;-0.18;100.00
25869;BME280;13688;53.154;18.136;2023-01-29T21:09:20;100785.95;;;-0.18;100.00
25869;BME280;13688;53.154;18.136;2023-01-29T21:14:43;100759.52;;;-0.18;100.00
25869;BME280;13688;53.154;18.136;2023-01-29T21:20:07;100748.95;;;-0.18;100.00
25869;BME280;13688;53.154;18.136;2023-01-29T21:25:29;100735.74;;;-0.18;100.00
25869;BME280;13688;53.154;18.136;2023-01-29T21:31:02;100733.13;;;-0.19;100.00
25869;BME280;13688;53.154;18.136;2023-01-29T21:36:23;100739.30;;;-0.19;100.00
25869;BME280;13688;53.154;18.136;2023-01-29T21:41:48;100726.17;;;-0.22;100.00
25869;BME280;13688;53.154;18.136;2023-01-29T21:47:29;100711.13;;;-0.20;100.00
25869;BME280;13688;53.154;18.136;2023-01-29T21:52:52;100691.02;;;-0.24;100.00
25869;BME280;13688;53.154;18.136;2023-01-29T21:58:14;100691.88;;;-0.23;100.00
25869;BME280;13688;53.154;18.136;2023-01-29T22:03:37;100681.20;;;-0.20;100.00
25869;BME280;13688;53.154;18.136;2023-01-29T22:08:59;100674.19;;;-0.21;100.00
25869;BME280;13688;53.154;18.136;2023-01-29T22:14:22;100671.48;;;-0.20;100.00
25869;BME280;13688;53.154;18.136;2023-01-29T22:19:45;100648.62;;;-0.21;100.00
25869;BME280;13688;53.154;18.136;2023-01-29T22:25:08;100645.91;;;-0.18;100.00
25869;BME280;13688;53.154;18.136;2023-01-29T22:30:30;100647.63;;;-0.17;100.00
